Wentzville, MO

7:52 PM CDT on March 30, 2015 (GMT -0500)
Golf Club of Wentzville | | Change Station
CLOSE
Current Station
Personal Weather Station
Location: Wentzville, MO
Elevation: 640 ft
Nearby Weather Stations

Elev 640 ft 38.79 °N, 90.90 °W | Updated 2 minutes ago

Clear
Clear
62.8 °F
Feels Like 62.8 °F
N
0.0
Wind Variable Wind from SSW
Gusts 0.0 mph

Today
High -- | Low -- °F
--% Chance of Precip.
Yesterday
High -- | Low -- °F
Precip. -- in
6:51 AM 7:24 PM
Waxing Gibbous, 83% visible
Pressure 29.99 in
Visibility 10.0 miles
Clouds Few 25000 ft
Dew Point 31 °F
Humidity 30%
Rainfall 0.00 in
Snow Depth Not available.
UV 0 out of 12
Pollen 11.80 out of 12
Air Quality Not available.
Flu Activity Not available.
METAR KSUS 302354Z 24005KT 10SM FEW250 19/M02 A2998 RMK AO2 SLP153 T01891022 10211 20178 56025

More Conditions Fewer Conditions

Pressure 29.99 in
Visibility 10.0 miles
Clouds Few 25000 ft
Dew Point 31 °F
Humidity 30%
Rainfall 0.00 in
Snow Depth Not available.
UV 0 out of 12
Pollen 11.80 out of 12
Air Quality Not available.
Flu Activity Not available.
METAR KSUS 302354Z 24005KT 10SM FEW250 19/M02 A2998 RMK AO2 SLP153 T01891022 10211 20178 56025

More Conditions Fewer Conditions

10-Day Weather Forecast

Almanac

Astronomy

Mar. 30, 2015 Rise Set
Actual Time
Civil Twilight
Nautical Twilight
Astronomical Twilight
Moon
Length of Visible Light
Length of Day
Tomorrow will be .
, % of the Moon is Illuminated

Today's Extremes

State Highs State Lows

Community

WunderPhotos

Upload Photos

1,809,638 photos uploaded!

WunderBlogs® & News

Nearby

Air Quality

  Air Quality AQ Index Pollutant
Not available.

Snow Depth

Station Depth Elevation

Earthquake Activity

City Distance Mag. Time & Date
Minimum magnitude displayed is 2.5.

Coastal Water Temperatures

Place Temperature

Stations

Nearby Weather Stations

Station Location Temp. Windchill Dew Point Humidity Wind Precip. Elev Updated Type